Terminal Aerodrome Forecast
Issued by NWS

Home | Current Version | Previous Version | Text Only | Print | Product List | Glossary On
Versions: 1 2 3 4 5 6 7 8 9 10 11 12 13 14 15
358
FTUS46 KEKA 041224 CCA
TAFUKI
TAF COR
KUKI 041224Z 0412/0512 00000KT P6SM SCT100
     FM041400 VRB04KT P6SM BKN100
     FM041900 25006KT P6SM VCSH SCT025 OVC035
     FM050100 31004KT P6SM VCSH OVC035
     FM050300 00000KT P6SM BKN250=

USA.gov is the U.S. government's official web portal to all federal, state and local government web resources and services.